createdAt,value
2019-01-24T00:00:57.858Z,0
2019-01-24T00:01:57.824Z,0
2019-01-24T00:02:59.252Z,0
2019-01-24T00:03:57.891Z,0
2019-01-24T00:04:57.956Z,0
2019-01-24T00:05:57.850Z,0
2019-01-24T00:06:57.832Z,0
2019-01-24T00:07:57.935Z,0
2019-01-24T00:08:58.906Z,0
2019-01-24T00:09:57.896Z,0
2019-01-24T00:10:57.983Z,0
2019-01-24T00:11:57.935Z,0
2019-01-24T00:12:57.867Z,0
2019-01-24T00:13:57.979Z,0
2019-01-24T00:14:58.295Z,0
2019-01-24T00:15:57.994Z,0
2019-01-24T00:16:57.905Z,0
2019-01-24T00:17:57.940Z,0
2019-01-24T00:18:57.930Z,0
2019-01-24T00:19:57.896Z,0
2019-01-24T00:20:57.909Z,0
2019-01-24T00:22:01.000Z,0
2019-01-24T00:22:58.100Z,0
2019-01-24T00:23:57.950Z,0
2019-01-24T00:24:57.891Z,0
2019-01-24T00:26:00.293Z,0
2019-01-24T00:26:57.904Z,0
2019-01-24T00:27:57.936Z,0
2019-01-24T00:28:57.869Z,0
2019-01-24T00:29:57.982Z,0
2019-01-24T00:30:57.891Z,0
2019-01-24T00:31:58.198Z,0
2019-01-24T00:32:57.814Z,0
2019-01-24T00:33:57.893Z,0
2019-01-24T00:34:57.907Z,0
2019-01-24T00:35:58.330Z,0
2019-01-24T00:36:57.934Z,0
2019-01-24T00:37:57.834Z,0
2019-01-24T00:38:57.915Z,0
2019-01-24T00:39:57.885Z,0
2019-01-24T00:40:57.997Z,0
2019-01-24T00:41:57.949Z,0
2019-01-24T00:42:57.867Z,0
2019-01-24T00:43:58.385Z,0
2019-01-24T00:44:57.912Z,0
2019-01-24T00:45:57.919Z,0
2019-01-24T00:46:57.904Z,0
2019-01-24T00:47:57.965Z,0
2019-01-24T00:48:57.980Z,0
2019-01-24T00:49:58.362Z,0
2019-01-24T00:50:57.930Z,0
2019-01-24T00:51:57.991Z,0
2019-01-24T00:52:57.905Z,0
2019-01-24T00:53:57.983Z,0
2019-01-24T00:54:57.912Z,0
2019-01-24T00:55:58.297Z,0
2019-01-24T00:56:57.994Z,0
2019-01-24T00:57:58.122Z,0
2019-01-24T00:58:57.953Z,0
2019-01-24T00:59:58.015Z,0
2019-01-24T01:00:57.920Z,0
2019-01-24T01:01:59.329Z,0
2019-01-24T01:02:57.930Z,0
2019-01-24T01:03:57.986Z,0
2019-01-24T01:04:57.947Z,0
2019-01-24T01:05:57.980Z,0
2019-01-24T01:06:57.996Z,0
2019-01-24T01:07:58.351Z,0
2019-01-24T01:08:57.937Z,0
2019-01-24T01:09:57.951Z,0
2019-01-24T01:10:58.052Z,0
2019-01-24T01:11:57.991Z,0
2019-01-24T01:12:57.924Z,0
2019-01-24T01:13:58.309Z,0
2019-01-24T01:14:57.949Z,0
2019-01-24T01:15:58.006Z,0
2019-01-24T01:16:57.991Z,0
2019-01-24T01:17:57.958Z,0
2019-01-24T01:18:57.963Z,0
2019-01-24T01:19:58.323Z,0
2019-01-24T01:20:57.953Z,0
2019-01-24T01:21:58.016Z,0
2019-01-24T01:22:57.923Z,0
2019-01-24T01:23:58.050Z,0
2019-01-24T01:24:58.110Z,0
2019-01-24T01:25:58.399Z,0
2019-01-24T01:26:57.985Z,0
2019-01-24T01:27:58.227Z,0
2019-01-24T01:28:57.999Z,0
2019-01-24T01:29:57.954Z,0
2019-01-24T01:30:58.035Z,0
2019-01-24T01:31:58.502Z,0
2019-01-24T01:32:58.058Z,0
2019-01-24T01:33:57.930Z,0
2019-01-24T01:34:58.049Z,0
2019-01-24T01:35:58.013Z,0
2019-01-24T01:36:58.053Z,0
2019-01-24T01:37:58.330Z,0
2019-01-24T01:38:58.027Z,0
2019-01-24T01:39:57.982Z,0
2019-01-24T01:40:58.007Z,0
2019-01-24T01:41:57.983Z,0
2019-01-24T01:42:58.006Z,0
2019-01-24T01:43:58.436Z,0
2019-01-24T01:44:58.341Z,0
2019-01-24T01:45:58.039Z,0
2019-01-24T01:46:58.028Z,0
2019-01-24T01:47:58.063Z,0
2019-01-24T01:48:58.089Z,0
2019-01-24T01:49:58.378Z,0
2019-01-24T01:50:58.043Z,0
2019-01-24T01:51:58.077Z,0
2019-01-24T01:52:58.981Z,0
2019-01-24T01:53:57.960Z,0
2019-01-24T01:54:58.103Z,0
2019-01-24T01:55:59.510Z,0
2019-01-24T01:56:58.113Z,0
2019-01-24T01:57:58.025Z,0
2019-01-24T01:58:58.096Z,0
2019-01-24T01:59:59.499Z,0
2019-01-24T02:00:58.123Z,0
2019-01-24T02:01:59.418Z,0
2019-01-24T02:02:58.306Z,0
2019-01-24T02:03:58.129Z,0
2019-01-24T02:04:58.109Z,0
2019-01-24T02:05:58.100Z,0
2019-01-24T02:06:58.152Z,0
2019-01-24T02:07:58.509Z,0
2019-01-24T02:08:58.060Z,0
2019-01-24T02:09:58.066Z,0
2019-01-24T02:10:58.031Z,0
2019-01-24T02:11:58.115Z,0
2019-01-24T02:12:58.049Z,0
2019-01-24T02:13:58.349Z,0
2019-01-24T02:14:58.059Z,0
2019-01-24T02:15:58.042Z,0
2019-01-24T02:16:58.020Z,0
2019-01-24T02:17:57.989Z,0
2019-01-24T02:18:58.040Z,0
2019-01-24T02:19:58.372Z,0
2019-01-24T02:20:58.075Z,0
2019-01-24T02:21:58.152Z,0
2019-01-24T02:22:58.182Z,0
2019-01-24T02:23:58.066Z,0
2019-01-24T02:24:58.147Z,0
2019-01-24T02:25:58.439Z,0
2019-01-24T02:26:58.010Z,0
2019-01-24T02:27:58.152Z,0
2019-01-24T02:28:58.031Z,0
2019-01-24T02:29:58.056Z,0
2019-01-24T02:30:58.063Z,0
2019-01-24T02:31:58.451Z,0
2019-01-24T02:32:58.032Z,0
2019-01-24T02:33:58.111Z,0
2019-01-24T02:34:58.397Z,0
2019-01-24T02:35:58.067Z,0
2019-01-24T02:36:58.058Z,0
2019-01-24T02:37:59.423Z,0
2019-01-24T02:38:58.113Z,0
2019-01-24T02:39:58.019Z,0
2019-01-24T02:40:58.134Z,0
2019-01-24T02:41:58.104Z,0
2019-01-24T02:42:58.110Z,0
2019-01-24T02:43:59.457Z,0
2019-01-24T02:44:58.121Z,0
2019-01-24T02:45:58.057Z,0
2019-01-24T02:47:08.206Z,0
2019-01-24T02:47:59.927Z,0
2019-01-24T02:48:58.222Z,0
2019-01-24T02:49:58.492Z,0
2019-01-24T02:50:58.141Z,0
2019-01-24T02:51:58.083Z,0
2019-01-24T02:52:58.051Z,0
2019-01-24T02:53:58.429Z,0
2019-01-24T02:54:58.075Z,0
2019-01-24T02:55:58.404Z,0
2019-01-24T02:56:58.174Z,0
2019-01-24T02:57:58.181Z,0
2019-01-24T02:58:58.083Z,0
2019-01-24T02:59:58.090Z,0
2019-01-24T03:00:58.273Z,0
2019-01-24T03:01:58.485Z,0
2019-01-24T03:02:58.139Z,0
2019-01-24T03:03:58.096Z,0
2019-01-24T03:05:02.738Z,0
2019-01-24T03:05:58.117Z,0
2019-01-24T03:06:58.145Z,0
2019-01-24T03:07:58.391Z,0
2019-01-24T03:08:58.241Z,0
2019-01-24T03:09:58.157Z,0
2019-01-24T03:10:58.222Z,0
2019-01-24T03:11:58.129Z,0
2019-01-24T03:12:58.080Z,0
2019-01-24T03:13:58.522Z,0
2019-01-24T03:14:58.202Z,0
2019-01-24T03:15:58.144Z,0
2019-01-24T03:16:58.142Z,0
2019-01-24T03:17:58.067Z,0
2019-01-24T03:18:58.119Z,0
2019-01-24T03:19:58.468Z,0
2019-01-24T03:20:58.192Z,0
2019-01-24T03:21:58.237Z,0
2019-01-24T03:22:58.204Z,0
2019-01-24T03:23:58.804Z,0
2019-01-24T03:24:58.442Z,0
2019-01-24T03:25:58.509Z,0
2019-01-24T03:26:58.153Z,0
2019-01-24T03:27:58.204Z,0
2019-01-24T03:28:58.210Z,0
2019-01-24T03:29:58.248Z,0
2019-01-24T03:37:25.294Z,0
2019-01-24T03:37:37.317Z,0
2019-01-24T03:38:38.035Z,0
2019-01-24T03:39:37.263Z,0
2019-01-24T03:40:37.530Z,0
2019-01-24T03:41:37.746Z,0
2019-01-24T03:42:37.451Z,0
2019-01-24T03:43:37.339Z,0
2019-01-24T03:44:37.226Z,0
2019-01-24T03:45:37.460Z,0
2019-01-24T03:46:37.258Z,0
2019-01-24T03:47:37.786Z,0
2019-01-24T03:48:37.297Z,0
2019-01-24T03:49:37.286Z,0
2019-01-24T03:50:37.377Z,0
2019-01-24T03:51:37.459Z,0
2019-01-24T03:52:37.249Z,0
2019-01-24T03:53:37.699Z,0
2019-01-24T03:54:37.319Z,0
2019-01-24T03:55:37.341Z,0
2019-01-24T03:56:37.287Z,0
2019-01-24T03:57:37.547Z,0
2019-01-24T03:58:37.317Z,0
2019-01-24T03:59:39.312Z,0
2019-01-24T04:00:37.397Z,0
2019-01-24T04:01:37.404Z,0
2019-01-24T04:02:38.488Z,0
2019-01-24T04:03:38.576Z,0
2019-01-24T04:04:37.389Z,0
2019-01-24T04:05:37.984Z,0
2019-01-24T04:06:38.806Z,0
2019-01-24T04:07:37.341Z,0
2019-01-24T04:08:37.347Z,0
2019-01-24T04:09:37.320Z,0
2019-01-24T04:10:37.366Z,0
2019-01-24T04:11:38.784Z,0
2019-01-24T04:12:37.352Z,0
2019-01-24T04:13:37.311Z,0
2019-01-24T04:14:37.347Z,0
2019-01-24T04:15:37.340Z,0
2019-01-24T04:16:37.679Z,0
2019-01-24T04:17:38.192Z,0
2019-01-24T04:18:37.345Z,0
2019-01-24T04:19:37.391Z,0
2019-01-24T04:20:37.330Z,0
2019-01-24T04:21:37.574Z,0
2019-01-24T04:22:37.386Z,0
2019-01-24T04:23:37.651Z,0
2019-01-24T04:24:37.382Z,0
2019-01-24T04:25:37.318Z,0
2019-01-24T04:26:37.394Z,0
2019-01-24T04:27:37.373Z,0
2019-01-24T04:28:37.448Z,0
2019-01-24T04:29:37.857Z,0
2019-01-24T04:30:37.437Z,0
2019-01-24T04:31:37.462Z,0
2019-01-24T04:32:37.439Z,0
2019-01-24T04:33:37.424Z,0
2019-01-24T04:34:37.392Z,0
2019-01-24T04:35:37.782Z,0
2019-01-24T04:36:37.820Z,0
2019-01-24T04:37:37.371Z,0
2019-01-24T04:38:37.447Z,0
2019-01-24T04:40:33.131Z,0
2019-01-24T04:40:57.225Z,0
2019-01-24T04:41:47.740Z,0
2019-01-24T04:42:47.780Z,0
2019-01-24T04:43:47.787Z,0
2019-01-24T04:44:47.670Z,0
2019-01-24T04:45:47.664Z,0
2019-01-24T04:46:50.053Z,0
2019-01-24T04:47:47.694Z,0
2019-01-24T04:48:47.856Z,0
2019-01-24T04:49:47.655Z,0
2019-01-24T04:50:47.697Z,0
2019-01-24T04:51:47.701Z,0
2019-01-24T04:52:48.800Z,0
2019-01-24T04:53:47.686Z,0
2019-01-24T04:54:47.621Z,0
2019-01-24T04:55:47.714Z,0
2019-01-24T04:56:47.628Z,0
2019-01-24T04:57:47.744Z,0
2019-01-24T04:59:14.442Z,0
2019-01-24T04:59:47.799Z,0
2019-01-24T05:00:47.863Z,0
2019-01-24T05:01:47.700Z,0
2019-01-24T05:02:47.595Z,0
2019-01-24T05:03:47.704Z,0
2019-01-24T05:04:48.098Z,0
2019-01-24T05:05:47.679Z,0
2019-01-24T05:06:47.654Z,0
2019-01-24T05:07:47.732Z,0
2019-01-24T05:08:47.709Z,0
2019-01-24T05:09:48.563Z,0
2019-01-24T05:10:48.032Z,0
2019-01-24T05:11:47.764Z,0
2019-01-24T05:12:47.625Z,0
2019-01-24T05:18:04.678Z,0
2019-01-24T05:18:16.663Z,0
2019-01-24T05:19:16.701Z,0
2019-01-24T05:20:16.760Z,0
2019-01-24T05:21:16.703Z,0
2019-01-24T05:22:17.070Z,0
2019-01-24T05:23:17.117Z,0
2019-01-24T05:24:16.768Z,0
2019-01-24T05:25:16.743Z,0
2019-01-24T05:26:37.383Z,0
2019-01-24T05:27:16.823Z,0
2019-01-24T05:28:20.330Z,0
2019-01-24T05:29:16.736Z,0
2019-01-24T05:30:16.693Z,0
2019-01-24T05:31:16.762Z,0
2019-01-24T05:32:16.664Z,0
2019-01-24T05:36:45.470Z,0
2019-01-24T05:37:45.515Z,0
2019-01-24T05:38:45.672Z,0
2019-01-24T05:39:45.457Z,0
2019-01-24T05:40:45.432Z,0
2019-01-24T05:41:45.551Z,0
2019-01-24T05:42:46.825Z,0
2019-01-24T05:43:45.453Z,0
2019-01-24T05:44:45.433Z,0
2019-01-24T05:45:45.484Z,0
2019-01-24T05:46:45.636Z,0
2019-01-24T05:47:45.490Z,0
2019-01-24T05:48:45.853Z,0
2019-01-24T05:49:45.472Z,0
2019-01-24T05:50:45.634Z,0
2019-01-24T05:51:45.638Z,0
2019-01-24T05:52:45.530Z,0
2019-01-24T05:53:45.451Z,0
2019-01-24T05:54:45.862Z,0
2019-01-24T05:55:45.493Z,0
2019-01-24T05:56:45.640Z,0
2019-01-24T05:57:45.583Z,0
2019-01-24T05:58:45.558Z,0
2019-01-24T05:59:51.609Z,0
2019-01-24T06:00:56.090Z,0
2019-01-24T06:01:45.532Z,0
2019-01-24T06:02:45.484Z,0
2019-01-24T06:03:45.512Z,0
2019-01-24T06:04:45.500Z,0
2019-01-24T06:05:50.171Z,0
2019-01-24T06:06:45.884Z,0
2019-01-24T06:07:45.540Z,0
2019-01-24T06:08:45.503Z,0
2019-01-24T06:09:45.869Z,0
2019-01-24T06:10:45.722Z,0
2019-01-24T06:11:45.563Z,0
2019-01-24T06:12:45.925Z,0
2019-01-24T06:13:45.713Z,0
2019-01-24T06:14:45.597Z,0
2019-01-24T06:15:45.592Z,0
2019-01-24T06:16:45.528Z,0
2019-01-24T06:17:46.188Z,0
2019-01-24T06:18:45.874Z,0
2019-01-24T06:19:45.495Z,0
2019-01-24T06:20:45.644Z,0
2019-01-24T06:21:45.498Z,0
2019-01-24T06:22:45.556Z,0
2019-01-24T06:23:45.512Z,0
2019-01-24T06:24:46.956Z,0
2019-01-24T06:25:45.590Z,0
2019-01-24T06:26:45.663Z,0
2019-01-24T06:27:45.513Z,0
2019-01-24T06:28:45.564Z,0
2019-01-24T06:29:45.654Z,0
2019-01-24T06:30:46.992Z,0
2019-01-24T06:31:45.542Z,0
2019-01-24T06:32:45.636Z,0
2019-01-24T06:33:45.586Z,0
2019-01-24T06:34:45.748Z,0
2019-01-24T06:35:51.613Z,0
2019-01-24T06:36:46.078Z,0
2019-01-24T06:37:45.643Z,0
2019-01-24T06:38:45.717Z,0
2019-01-24T06:39:45.825Z,4
2019-01-24T06:40:45.584Z,0
2019-01-24T06:41:45.699Z,0
2019-01-24T06:42:46.182Z,0
2019-01-24T06:43:45.951Z,4
2019-01-24T06:44:45.689Z,0
2019-01-24T06:45:45.775Z,4
2019-01-24T06:46:45.623Z,4
2019-01-24T06:47:45.598Z,4
2019-01-24T06:48:48.034Z,4
2019-01-24T06:49:45.642Z,4
2019-01-24T06:50:45.618Z,4
2019-01-24T06:51:45.740Z,4
2019-01-24T06:52:45.793Z,8
2019-01-24T06:53:45.671Z,8
2019-01-24T06:54:47.069Z,12
2019-01-24T06:55:45.594Z,8
2019-01-24T06:56:45.563Z,12
2019-01-24T06:57:47.073Z,12
2019-01-24T06:58:45.716Z,12
2019-01-24T06:59:45.689Z,16
2019-01-24T07:00:46.028Z,16
2019-01-24T07:01:45.692Z,16
2019-01-24T07:02:46.060Z,20
2019-01-24T07:03:45.775Z,16
2019-01-24T07:04:45.648Z,20
2019-01-24T07:05:45.777Z,24
2019-01-24T07:06:54.809Z,20
2019-01-24T07:07:46.448Z,24
2019-01-24T07:08:45.643Z,24
2019-01-24T07:09:45.833Z,28
2019-01-24T07:10:46.015Z,28
2019-01-24T07:11:45.601Z,28
2019-01-24T07:12:46.004Z,32
2019-01-24T07:13:45.668Z,36
2019-01-24T07:14:45.708Z,32
2019-01-24T07:15:45.578Z,32
2019-01-24T07:16:45.573Z,36
2019-01-24T07:17:45.549Z,40
2019-01-24T07:18:45.922Z,40
2019-01-24T07:19:45.724Z,40
2019-01-24T07:20:45.555Z,44
2019-01-24T07:21:45.627Z,48
2019-01-24T07:22:45.623Z,52
2019-01-24T07:23:45.581Z,52
2019-01-24T07:24:45.962Z,56
2019-01-24T07:25:45.575Z,60
2019-01-24T07:26:45.684Z,64
2019-01-24T07:27:45.602Z,68
2019-01-24T07:28:45.567Z,72
2019-01-24T07:29:45.555Z,80
2019-01-24T07:30:45.894Z,80
2019-01-24T07:31:46.204Z,88
2019-01-24T07:32:45.545Z,88
2019-01-24T07:33:45.647Z,92
2019-01-24T07:34:45.589Z,96
2019-01-24T07:35:45.967Z,96
2019-01-24T07:36:45.923Z,104
2019-01-24T07:37:45.659Z,104
2019-01-24T07:38:45.608Z,112
2019-01-24T07:39:45.591Z,112
2019-01-24T07:40:45.649Z,120
2019-01-24T07:41:45.618Z,124
2019-01-24T07:42:45.961Z,124
2019-01-24T07:43:45.864Z,132
2019-01-24T07:44:45.597Z,136
2019-01-24T07:45:45.694Z,140
2019-01-24T07:46:45.624Z,144
2019-01-24T07:47:45.688Z,148
2019-01-24T07:48:46.014Z,152
2019-01-24T07:49:45.649Z,156
2019-01-24T07:50:45.612Z,160
2019-01-24T07:51:45.636Z,160
2019-01-24T07:52:45.618Z,164
2019-01-24T07:53:45.684Z,168
2019-01-24T07:54:46.061Z,172
2019-01-24T07:55:45.746Z,176
2019-01-24T07:56:45.621Z,180
2019-01-24T07:57:45.703Z,184
2019-01-24T07:58:45.636Z,192
2019-01-24T07:59:45.774Z,200
2019-01-24T08:00:45.864Z,208
2019-01-24T08:01:45.678Z,212
2019-01-24T08:02:45.673Z,220
2019-01-24T08:03:45.690Z,224
2019-01-24T08:04:45.645Z,228
2019-01-24T08:05:46.337Z,232
2019-01-24T08:06:46.027Z,240
2019-01-24T08:07:45.776Z,244
2019-01-24T08:08:45.662Z,248
2019-01-24T08:17:45.060Z,272
2019-01-24T08:18:31.717Z,272
2019-01-24T08:19:31.775Z,276
2019-01-24T08:20:31.645Z,280
2019-01-24T08:21:31.702Z,292
2019-01-24T08:22:31.732Z,308
2019-01-24T08:23:32.125Z,316
2019-01-24T08:24:31.744Z,324
2019-01-24T08:25:31.714Z,332
2019-01-24T08:26:31.759Z,344
2019-01-24T08:27:32.833Z,352
2019-01-24T08:28:31.740Z,364
2019-01-24T08:29:32.043Z,380
2019-01-24T08:36:59.488Z,396
2019-01-24T08:37:12.180Z,448
2019-01-24T08:38:12.043Z,448
2019-01-24T08:39:12.039Z,448
2019-01-24T08:40:12.166Z,448
2019-01-24T08:41:12.002Z,456
2019-01-24T08:42:12.502Z,476
2019-01-24T08:43:12.085Z,496
2019-01-24T08:44:12.201Z,528
2019-01-24T08:45:12.064Z,568
2019-01-24T08:46:12.084Z,608
2019-01-24T08:47:13.533Z,640
2019-01-24T08:48:12.407Z,660
2019-01-24T08:49:12.108Z,672
2019-01-24T08:50:12.121Z,680
2019-01-24T08:51:12.102Z,688
2019-01-24T08:52:12.159Z,704
2019-01-24T08:53:12.149Z,712
2019-01-24T08:54:12.447Z,716
2019-01-24T08:55:12.091Z,720
2019-01-24T08:56:12.092Z,736
2019-01-24T08:57:12.617Z,744
2019-01-24T08:58:12.692Z,740
2019-01-24T08:59:12.114Z,744
2019-01-24T09:00:13.396Z,740
2019-01-24T09:01:12.033Z,736
2019-01-24T09:02:12.090Z,748
2019-01-24T09:03:12.569Z,768
2019-01-24T09:04:12.122Z,788
2019-01-24T09:05:12.179Z,800
2019-01-24T09:06:12.432Z,788
2019-01-24T09:07:12.040Z,776
2019-01-24T09:08:12.104Z,748
2019-01-24T09:09:12.104Z,724
2019-01-24T09:10:12.151Z,708
2019-01-24T09:11:12.295Z,692
2019-01-24T09:12:12.474Z,672
2019-01-24T09:13:12.112Z,640
2019-01-24T09:14:12.167Z,616
2019-01-24T09:15:12.143Z,596
2019-01-24T09:16:12.066Z,568
2019-01-24T09:17:12.224Z,536
2019-01-24T09:18:16.823Z,524
2019-01-24T09:25:39.799Z,584
2019-01-24T09:25:52.371Z,580
2019-01-24T09:26:52.270Z,572
2019-01-24T09:27:52.275Z,560
2019-01-24T09:28:52.213Z,556
2019-01-24T09:29:52.349Z,552
2019-01-24T09:30:59.630Z,572
2019-01-24T09:31:52.402Z,584
2019-01-24T09:32:52.312Z,584
2019-01-24T09:33:52.320Z,588
2019-01-24T09:34:52.263Z,584
2019-01-24T09:35:52.323Z,572
2019-01-24T09:36:52.681Z,560
2019-01-24T09:37:52.404Z,560
2019-01-24T09:38:52.433Z,568
2019-01-24T09:39:52.420Z,588
2019-01-24T09:40:52.414Z,624
2019-01-24T09:41:52.577Z,656
2019-01-24T09:42:56.606Z,676
2019-01-24T09:43:52.670Z,660
2019-01-24T09:44:52.323Z,636
2019-01-24T09:45:52.441Z,616
2019-01-24T09:46:52.369Z,600
2019-01-24T09:47:52.312Z,608
2019-01-24T09:48:52.949Z,616
2019-01-24T09:49:52.388Z,632
2019-01-24T09:50:52.291Z,664
2019-01-24T09:51:52.391Z,688
2019-01-24T09:52:52.273Z,696
2019-01-24T09:53:52.789Z,700
2019-01-24T09:54:52.785Z,712
2019-01-24T09:55:52.284Z,720
2019-01-24T09:56:52.331Z,724
2019-01-24T09:57:52.373Z,720
2019-01-24T09:58:52.294Z,704
2019-01-24T09:59:52.328Z,680
2019-01-24T10:00:52.625Z,660
2019-01-24T10:01:52.317Z,644
2019-01-24T10:02:52.432Z,636
2019-01-24T10:03:52.350Z,644
2019-01-24T10:04:52.320Z,664
2019-01-24T10:05:52.452Z,684
2019-01-24T10:06:59.196Z,696
2019-01-24T10:07:52.403Z,700
2019-01-24T10:08:52.299Z,720
2019-01-24T10:09:54.111Z,776
2019-01-24T10:10:52.351Z,844
2019-01-24T10:11:52.484Z,888
2019-01-24T10:12:58.744Z,912
2019-01-24T10:13:52.371Z,928
2019-01-24T10:14:52.340Z,928
2019-01-24T10:15:52.408Z,920
2019-01-24T10:16:52.323Z,904
2019-01-24T10:17:52.418Z,892
2019-01-24T10:19:55.784Z,912
2019-01-24T10:20:52.319Z,924
2019-01-24T10:21:52.395Z,920
2019-01-24T10:22:52.314Z,912
2019-01-24T10:23:52.482Z,904
2019-01-24T10:24:52.327Z,900
2019-01-24T10:25:52.488Z,912
2019-01-24T10:26:52.420Z,912
2019-01-24T10:27:52.411Z,908
2019-01-24T10:28:52.568Z,896
2019-01-24T10:33:21.870Z,852
2019-01-24T10:34:21.783Z,840
2019-01-24T10:35:21.909Z,820
2019-01-24T10:36:21.899Z,808
2019-01-24T10:37:23.170Z,792
2019-01-24T10:38:21.827Z,776
2019-01-24T10:39:21.917Z,768
2019-01-24T10:40:21.883Z,772
2019-01-24T10:41:21.868Z,784
2019-01-24T10:42:22.328Z,816
2019-01-24T10:43:22.936Z,856
2019-01-24T10:44:22.811Z,904
2019-01-24T10:45:22.348Z,948
2019-01-24T10:46:22.635Z,976
2019-01-24T10:47:22.431Z,980
2019-01-24T10:48:24.493Z,948
2019-01-24T10:49:22.652Z,904
2019-01-24T10:50:22.217Z,860
2019-01-24T10:51:21.904Z,832
2019-01-24T10:52:22.115Z,828
2019-01-24T10:53:22.165Z,832
2019-01-24T10:54:22.058Z,856
2019-01-24T10:55:23.131Z,896
2019-01-24T10:56:21.855Z,936
2019-01-24T10:57:23.628Z,960
2019-01-24T10:58:22.009Z,964
2019-01-24T10:59:21.928Z,956
2019-01-24T11:00:21.857Z,948
2019-01-24T11:01:22.201Z,940
2019-01-24T11:02:21.833Z,928
2019-01-24T11:03:21.986Z,924
2019-01-24T11:04:21.927Z,924
2019-01-24T11:05:21.889Z,936
2019-01-24T11:06:21.828Z,940
2019-01-24T11:07:23.258Z,944
2019-01-24T11:08:21.987Z,936
2019-01-24T11:09:21.863Z,928
2019-01-24T11:10:22.123Z,916
2019-01-24T11:11:21.935Z,904
2019-01-24T11:12:21.855Z,892
2019-01-24T11:13:23.321Z,888
2019-01-24T11:14:21.957Z,892
2019-01-24T11:15:21.949Z,900
2019-01-24T11:16:21.938Z,904
2019-01-24T11:17:21.943Z,916
2019-01-24T11:18:21.966Z,928
2019-01-24T11:19:23.344Z,936
2019-01-24T11:20:22.016Z,936
2019-01-24T11:21:21.936Z,932
2019-01-24T11:22:21.864Z,928
2019-01-24T11:23:21.935Z,916
2019-01-24T11:24:21.980Z,904
2019-01-24T11:25:22.285Z,892
2019-01-24T11:26:22.505Z,880
2019-01-24T11:27:21.893Z,860
2019-01-24T11:28:22.074Z,832
2019-01-24T11:29:21.892Z,808
2019-01-24T11:30:21.921Z,800
2019-01-24T11:31:22.301Z,800
2019-01-24T11:32:21.921Z,808
2019-01-24T11:33:21.965Z,820
2019-01-24T11:34:21.983Z,832
2019-01-24T11:35:22.056Z,836
2019-01-24T11:36:21.908Z,832
2019-01-24T11:37:24.295Z,824
2019-01-24T11:38:22.008Z,804
2019-01-24T11:39:21.901Z,792
2019-01-24T11:40:26.655Z,784
2019-01-24T11:41:21.986Z,772
2019-01-24T11:42:21.887Z,764
2019-01-24T11:43:22.360Z,752
2019-01-24T11:44:21.972Z,744
2019-01-24T11:45:22.064Z,732
2019-01-24T11:46:21.957Z,724
2019-01-24T11:47:21.953Z,716
2019-01-24T11:48:21.979Z,704
2019-01-24T11:49:23.372Z,688
2019-01-24T11:50:21.973Z,672
2019-01-24T11:51:21.969Z,660
2019-01-24T11:52:23.409Z,652
2019-01-24T11:53:21.929Z,640
2019-01-24T11:54:21.934Z,628
2019-01-24T11:55:23.280Z,624
2019-01-24T11:56:21.890Z,620
2019-01-24T11:57:21.920Z,616
2019-01-24T11:58:21.959Z,608
2019-01-24T11:59:21.955Z,600
2019-01-24T12:00:21.913Z,592
2019-01-24T12:01:23.348Z,584
2019-01-24T12:08:46.861Z,476
2019-01-24T12:08:59.448Z,476
2019-01-24T12:09:59.311Z,472
2019-01-24T12:10:59.329Z,476
2019-01-24T12:11:59.343Z,476
2019-01-24T12:12:59.400Z,480
2019-01-24T12:13:59.732Z,484
2019-01-24T12:14:59.367Z,480
2019-01-24T12:15:59.369Z,480
2019-01-24T12:16:59.305Z,480
2019-01-24T12:17:59.316Z,480
2019-01-24T12:18:59.459Z,480
2019-01-24T12:19:59.697Z,480
2019-01-24T12:20:59.352Z,480
2019-01-24T12:21:59.360Z,480
2019-01-24T12:22:59.410Z,480
2019-01-24T12:23:59.385Z,480
2019-01-24T12:24:59.891Z,476
2019-01-24T12:26:59.391Z,468
2019-01-24T12:27:59.351Z,464
2019-01-24T12:28:59.355Z,456
2019-01-24T12:29:59.396Z,452
2019-01-24T12:30:59.421Z,444
2019-01-24T12:32:07.691Z,444
2019-01-24T12:32:59.428Z,440
2019-01-24T12:33:59.391Z,440
2019-01-24T12:34:59.361Z,440
2019-01-24T12:35:59.366Z,432
2019-01-24T12:36:59.320Z,428
2019-01-24T12:38:01.804Z,428
2019-01-24T12:38:59.452Z,428
2019-01-24T12:39:59.357Z,436
2019-01-24T12:40:59.424Z,440
2019-01-24T12:41:59.442Z,444
2019-01-24T12:42:59.405Z,444
2019-01-24T12:43:59.773Z,444
2019-01-24T12:44:59.506Z,448
2019-01-24T12:45:59.391Z,452
2019-01-24T12:46:59.499Z,460
2019-01-24T12:47:59.415Z,460
2019-01-24T12:48:59.488Z,460
2019-01-24T12:50:02.325Z,456
2019-01-24T12:50:59.489Z,452
2019-01-24T12:51:59.466Z,448
2019-01-24T12:52:59.545Z,444
2019-01-24T12:54:00.357Z,444
2019-01-24T12:54:59.751Z,440
2019-01-24T12:56:02.315Z,440
2019-01-24T12:56:59.564Z,436
2019-01-24T12:57:59.655Z,436
2019-01-24T12:58:59.482Z,432
2019-01-24T12:59:59.861Z,432
2019-01-24T13:00:59.452Z,428
2019-01-24T13:02:00.789Z,424
2019-01-24T13:02:59.515Z,424
2019-01-24T13:03:59.464Z,420
2019-01-24T13:04:59.461Z,432
2019-01-24T13:05:59.453Z,440
2019-01-24T13:06:59.469Z,448
2019-01-24T13:08:01.989Z,460
2019-01-24T13:08:59.468Z,472
2019-01-24T13:09:59.445Z,484
2019-01-24T13:10:59.397Z,488
2019-01-24T13:11:59.536Z,488
2019-01-24T13:12:59.512Z,492
2019-01-24T13:14:05.526Z,496
2019-01-24T13:14:59.503Z,500
2019-01-24T13:15:59.429Z,500
2019-01-24T13:16:59.462Z,500
2019-01-24T13:17:59.540Z,504
2019-01-24T13:18:59.471Z,512
2019-01-24T13:20:07.744Z,512
2019-01-24T13:20:59.513Z,516
2019-01-24T13:22:00.173Z,516
2019-01-24T13:22:59.542Z,508
2019-01-24T13:23:59.441Z,504
2019-01-24T13:24:59.542Z,500
2019-01-24T13:26:00.854Z,496
2019-01-24T13:26:59.506Z,492
2019-01-24T13:27:59.665Z,484
2019-01-24T13:28:59.536Z,476
2019-01-24T13:29:59.512Z,468
2019-01-24T13:30:59.905Z,464
2019-01-24T13:32:00.898Z,460
2019-01-24T13:32:59.463Z,452
2019-01-24T13:33:59.504Z,448
2019-01-24T13:34:59.751Z,436
2019-01-24T13:35:59.453Z,432
2019-01-24T13:36:59.524Z,424
2019-01-24T13:37:59.868Z,416
2019-01-24T13:38:59.479Z,408
2019-01-24T13:39:59.589Z,408
2019-01-24T13:40:59.532Z,408
2019-01-24T13:41:59.845Z,412
2019-01-24T13:42:59.567Z,416
2019-01-24T13:43:59.884Z,420
2019-01-24T13:44:59.497Z,428
2019-01-24T13:45:59.557Z,428
2019-01-24T13:46:59.588Z,436
2019-01-24T13:47:59.480Z,444
2019-01-24T13:48:59.528Z,456
2019-01-24T13:49:59.927Z,472
2019-01-24T13:57:27.510Z,484
2019-01-24T13:57:40.756Z,516
2019-01-24T13:58:40.051Z,520
2019-01-24T13:59:40.115Z,528
2019-01-24T14:00:40.310Z,528
2019-01-24T14:01:40.091Z,524
2019-01-24T14:02:40.579Z,512
2019-01-24T14:03:45.040Z,492
2019-01-24T14:04:40.218Z,472
2019-01-24T14:05:40.112Z,448
2019-01-24T14:06:40.105Z,428
2019-01-24T14:07:41.888Z,420
2019-01-24T14:08:41.500Z,408
2019-01-24T14:09:40.144Z,404
2019-01-24T14:10:40.094Z,396
2019-01-24T14:11:40.094Z,384
2019-01-24T14:12:40.197Z,376
2019-01-24T14:13:40.112Z,372
2019-01-24T14:14:41.544Z,368
2019-01-24T14:15:40.164Z,368
2019-01-24T14:16:41.616Z,364
2019-01-24T14:17:40.113Z,356
2019-01-24T14:18:40.277Z,352
2019-01-24T14:19:40.152Z,348
2019-01-24T14:20:41.490Z,344
2019-01-24T14:21:40.154Z,340
2019-01-24T14:22:39.915Z,336
2019-01-24T14:23:40.284Z,336
2019-01-24T14:24:40.212Z,340
2019-01-24T14:25:40.259Z,348
2019-01-24T14:26:40.511Z,356
2019-01-24T14:27:40.152Z,364
2019-01-24T14:28:40.187Z,368
2019-01-24T14:29:40.201Z,372
2019-01-24T14:30:40.242Z,376
2019-01-24T14:31:40.236Z,372
2019-01-24T14:32:40.617Z,376
2019-01-24T14:33:40.182Z,372
2019-01-24T14:34:40.203Z,368
2019-01-24T14:35:40.280Z,364
2019-01-24T14:36:40.215Z,360
2019-01-24T14:37:45.565Z,356
2019-01-24T14:38:40.560Z,352
2019-01-24T14:39:40.323Z,348
2019-01-24T14:40:40.205Z,340
2019-01-24T14:41:40.266Z,328
2019-01-24T14:42:40.181Z,316
2019-01-24T14:43:40.320Z,304
2019-01-24T14:44:42.562Z,296
2019-01-24T14:45:40.315Z,288
2019-01-24T14:46:40.187Z,284
2019-01-24T14:47:40.542Z,280
2019-01-24T14:48:40.305Z,272
2019-01-24T14:49:40.200Z,264
2019-01-24T14:50:41.421Z,252
2019-01-24T14:51:40.226Z,240
2019-01-24T14:52:40.207Z,236
2019-01-24T14:53:40.241Z,232
2019-01-24T14:54:40.180Z,228
2019-01-24T14:55:40.203Z,224
2019-01-24T14:56:40.579Z,220
2019-01-24T14:57:40.164Z,216
2019-01-24T14:58:40.182Z,212
2019-01-24T14:59:40.201Z,208
2019-01-24T15:00:40.281Z,200
2019-01-24T15:01:40.245Z,192
2019-01-24T15:02:41.385Z,184
2019-01-24T15:03:40.243Z,176
2019-01-24T15:04:40.199Z,164